默认 日期 大小 文件数 浏览量 最新下载 xml
pack 5磁力链接相关资源由用户搜索指令自动获取,结果来源于网络,本站不存储任何资料,亦不承担任何责任,请于24小时内删除,搜索到9953个磁力,显示前4000条数据,用时40ms。
    {"2010_04_29_05-indian-sex.wmv": 1204944, "2010_08_16_12-indian-sex.wmv": 3742975, "2010_08_27_01-indian-sex.wmv": 15098140, "Pakistan Porn Actress Nadia.flv": 18136425, "Ladakh Husband fucks his wife.flv": 17328424}
创建时间: 2019-10-26 03:49:55 大小:52.94 MB 文件数量:5 热度:4 最近下载:2022-11-12 12:49:29
    {"www.RARBG.com.txt": 40, "Windows 8 Skin.Pack 5.0 For [Windows 7] (32-bit+64-bit)-[OS].nfo": 143, "Windows 8 Skin.Pack 5.0 For [Windows 7] (32-bit+64-bit)-[OS]-setup.exe": 45241539}
创建时间: 2019-10-26 15:42:12 大小:43.15 MB 文件数量:3 热度:4 最近下载:2022-11-15 18:57:56
    ... 754243, "Delicious Food Wallpapers 5 (5).jpg": 393684, "Delicious Food ... 1197633, "Delicious Food Wallpapers 5 (12).jpg": 1445186, " ... 1409715, "Delicious Food Wallpapers 5 (16).jpg": 1694443, " ... 1542082, "Delicious Food Wallpapers 5 (30).jpg": 2372230, " ...
创建时间: 2019-10-29 18:12:50 大小:35.53 MB 文件数量:34 热度:3 最近下载:2022-11-12 09:53:30
    {"Acupressure In Daily Life.epub": 1164918, "Migraine and other Headaches.pdf": 2964582, "1001 Ways to Stay Young Naturally.pdf": 34782341, "100 Questions & Answers About Infertility.pdf": 6335726, "Bach Flower Essences and Chinese Medicine.epub": 865671, ...
创建时间: 2019-11-16 14:58:25 大小:179.6 MB 文件数量:20 热度:7 最近下载:2025-03-21 19:51:05
    ... 8395465, "Call & Message blocker v4.5.1 - android-zone.org.apk ... "CM10CM10.1 Transparent Theme v4.5 - android-zone.org.apk": ... "TweetCaster Pro for Twitter v7.5.2 - android-zone.org.apk ... "SymbolsKeyboard & TextArt Pro v3.2.5 - android-zone.org.apk": 5485809 ...
创建时间: 2019-11-17 21:06:05 大小:237.01 MB 文件数量:31 热度:6 最近下载:2025-02-03 21:28:02
    {"open_server_5_1_1_apps.exe": 252794684, "open_server_5_1_1_full.exe": 445548050, "open_server_5_1_1_mini.exe": 194627931}
创建时间: 2019-11-18 02:58:36 大小:851.6 MB 文件数量:3 热度:4 最近下载:2023-12-24 14:00:13
    {"Satanik.-.031.-.2.giorni.su.7.(Edit.By.Gitra).cbr": 25689451, "Satanik.-.032.-.Si.Vince.Col.9 (Edit by Gitra).cbr": 30296480, "Satanik.-.037.-.L'anello dei maja (Edit by Gitra).cbr": 30377801, "Satanik.-.035.-.Il.tempio.di.Giove (Edit by Gitra).cbr": ...
创建时间: 2019-11-18 05:44:45 大小:263.54 MB 文件数量:10 热度:8 最近下载:2025-03-15 12:05:02
    {"Vixen": {"Vixen.cbr": 6228104, "Vixen-db.cbr": 4360313, "Vixenrrse.cbr": 4553923}, "Nagarya": {"Nagarya,_Part_1,_In_the_Beginning.cbr": 9705307, "Nagarya,_Part_2,_The_Lost_Continent.cbr": 8507288}, "Verotika": {"I Grat X.cbr": 3148961, "Akuma She.cbr": ...
创建时间: 2019-11-19 01:35:16 大小:699.82 MB 文件数量:37 热度:3 最近下载:2023-12-24 16:44:04
    {"Mercy Hills Pack 05 - Legally Mated.m4b": 593872288}
创建时间: 2019-11-19 16:52:24 大小:566.36 MB 文件数量:1 热度:4 最近下载:2024-08-31 17:45:02
    ... Textures.zip": 8297021, "Quinn Expansion Pack 2 - Tuxedo Felt Textures.zip ...
创建时间: 2019-11-24 20:49:10 大小:64.38 MB 文件数量:299 热度:13 最近下载:2025-07-31 02:16:01
    ... 2613352, "Stunning Car Wallpapers 5 (2).jpg": 2129599, "Stunning ... 2776684, "Stunning Car Wallpapers 5 (5).jpg": 966018, "Stunning Car ... 256410, "Stunning Car Wallpapers 5 (10).jpg": 1508568, " ... 1753439, "Stunning Car Wallpapers 5 (29).jpg": 1390973, "Stunning ...
创建时间: 2019-11-29 07:28:07 大小:23.78 MB 文件数量:30 热度:4 最近下载:2023-12-26 00:52:02
    {"K-Lite Codec Pack 3.0.0 64-bit": {"K-Lite_Codec_Pack_64bit_300.exe": 6662716}, "K-Lite Codec Pack Update 5.5.0": {"klcp_update_550_20091210.exe": 6285632}, "K-Lite_Codec_Pack_551_Mega.exe": 24816710}
创建时间: 2019-11-30 18:38:35 大小:36.02 MB 文件数量:3 热度:5 最近下载:2023-12-26 03:44:03
    {"K-Lite Codec Pack 5.2.0 Update": {"klcp_update_520_20091013.exe": 4264486}, "K-Lite_Codec_Pack_530_Mega.exe": 23552194}
创建时间: 2019-12-01 00:48:26 大小:26.53 MB 文件数量:2 热度:5 最近下载:2025-01-11 20:12:01
    {"Pixel_Film_Studios_Plugins_For_Final_Cut_Pro_Pack_5.zip": 340018918}
创建时间: 2019-12-06 21:48:13 大小:324.27 MB 文件数量:1 热度:5 最近下载:2023-12-26 18:28:02
    {"All About History - Pharaohs.pdf": 158831327, "All About History - Civil Wars.pdf": 150682352, "All About History - Annual 2019.pdf": 191362474, "All About History - Ancient Gods.pdf": 146868954, "All About History - Witch Trials.pdf": 189056627, "All ...
创建时间: 2019-12-09 22:50:01 大小:3.02 GB 文件数量:20 热度:5 最近下载:2025-01-03 21:48:04
    {"Pixel_Film_Studios_Plugins_For_Final_Cut_Pro_Pack_5.zip": 332139896}
创建时间: 2019-12-11 06:49:52 大小:316.75 MB 文件数量:1 热度:6 最近下载:2025-05-08 04:19:01
    {"Pixel_Film_Studios_Plugins_For_Final_Cut_Pro_Pack_5.zip": 330769700}
创建时间: 2019-12-11 16:23:53 大小:315.45 MB 文件数量:1 热度:6 最近下载:2025-03-28 03:38:02
    {"Pixel_Film_Studios_Plugins_For_Final_Cut_Pro_Pack_5.zip": 354749436}
创建时间: 2019-12-13 06:33:12 大小:338.32 MB 文件数量:1 热度:5 最近下载:2023-12-28 16:06:05
    {"Pixel_Film_Studios_Plugins_For_Final_Cut_Pro_Pack_5.zip": 353036680}
创建时间: 2019-12-18 23:03:12 大小:336.68 MB 文件数量:1 热度:4 最近下载:2023-12-28 17:10:07
    {"Pixel_Film_Studios_Plugins_For_Final_Cut_Pro_Pack_5.zip": 334195459}
创建时间: 2019-12-18 23:57:05 大小:318.71 MB 文件数量:1 热度:5 最近下载:2025-03-14 02:58:01